sensor_id;sensor_type;location;lat;lon;timestamp;P1;durP1;ratioP1;P2;durP2;ratioP2
51515;SDS011;37603;55.614;37.326;2024-03-02T00:03:49;62.2;;;36.8;;
51515;SDS011;37603;55.614;37.326;2024-03-02T00:09:48;62.7;;;36.9;;
51515;SDS011;37603;55.614;37.326;2024-03-02T00:15:47;57.2;;;36.0;;
51515;SDS011;37603;55.614;37.326;2024-03-02T00:21:46;62.5;;;35.5;;
51515;SDS011;37603;55.614;37.326;2024-03-02T00:27:47;64.3;;;38.2;;
51515;SDS011;37603;55.614;37.326;2024-03-02T00:33:44;61.8;;;36.8;;
51515;SDS011;37603;55.614;37.326;2024-03-02T00:39:42;57.6;;;35.4;;
51515;SDS011;37603;55.614;37.326;2024-03-02T00:45:41;54.0;;;34.4;;
51515;SDS011;37603;55.614;37.326;2024-03-02T00:51:40;61.8;;;34.8;;
51515;SDS011;37603;55.614;37.326;2024-03-02T00:57:39;55.3;;;32.7;;
51515;SDS011;37603;55.614;37.326;2024-03-02T01:03:38;59.7;;;34.1;;
51515;SDS011;37603;55.614;37.326;2024-03-02T01:09:37;63.7;;;36.3;;
51515;SDS011;37603;55.614;37.326;2024-03-02T01:15:36;56.8;;;35.0;;
51515;SDS011;37603;55.614;37.326;2024-03-02T01:21:35;60.3;;;35.0;;
51515;SDS011;37603;55.614;37.326;2024-03-02T01:27:34;53.2;;;34.4;;
51515;SDS011;37603;55.614;37.326;2024-03-02T01:33:33;55.2;;;33.9;;
51515;SDS011;37603;55.614;37.326;2024-03-02T01:39:32;59.5;;;34.6;;
51515;SDS011;37603;55.614;37.326;2024-03-02T01:45:30;58.5;;;35.1;;
51515;SDS011;37603;55.614;37.326;2024-03-02T01:51:29;58.8;;;35.4;;
51515;SDS011;37603;55.614;37.326;2024-03-02T01:57:28;58.4;;;34.2;;
51515;SDS011;37603;55.614;37.326;2024-03-02T02:03:27;55.8;;;33.2;;
51515;SDS011;37603;55.614;37.326;2024-03-02T02:09:26;59.6;;;34.2;;
51515;SDS011;37603;55.614;37.326;2024-03-02T02:15:25;59.5;;;34.2;;
51515;SDS011;37603;55.614;37.326;2024-03-02T02:21:24;62.0;;;35.3;;
51515;SDS011;37603;55.614;37.326;2024-03-02T02:27:23;58.5;;;34.7;;
51515;SDS011;37603;55.614;37.326;2024-03-02T02:33:22;56.6;;;34.6;;
51515;SDS011;37603;55.614;37.326;2024-03-02T02:39:21;64.2;;;36.7;;
51515;SDS011;37603;55.614;37.326;2024-03-02T02:45:19;62.1;;;35.3;;
51515;SDS011;37603;55.614;37.326;2024-03-02T02:51:18;56.3;;;33.1;;
51515;SDS011;37603;55.614;37.326;2024-03-02T02:57:17;58.0;;;33.8;;
51515;SDS011;37603;55.614;37.326;2024-03-02T03:03:16;58.6;;;34.1;;
51515;SDS011;37603;55.614;37.326;2024-03-02T03:09:15;60.3;;;34.9;;
51515;SDS011;37603;55.614;37.326;2024-03-02T03:15:14;56.4;;;34.4;;
51515;SDS011;37603;55.614;37.326;2024-03-02T03:21:13;58.5;;;35.0;;
51515;SDS011;37603;55.614;37.326;2024-03-02T03:27:12;60.3;;;34.8;;
51515;SDS011;37603;55.614;37.326;2024-03-02T03:33:11;64.9;;;36.0;;
51515;SDS011;37603;55.614;37.326;2024-03-02T03:39:09;64.3;;;36.4;;
51515;SDS011;37603;55.614;37.326;2024-03-02T03:45:09;58.6;;;35.8;;
51515;SDS011;37603;55.614;37.326;2024-03-02T03:51:07;61.0;;;36.1;;
51515;SDS011;37603;55.614;37.326;2024-03-02T03:57:06;61.3;;;35.3;;
51515;SDS011;37603;55.614;37.326;2024-03-02T04:03:05;56.9;;;33.7;;
51515;SDS011;37603;55.614;37.326;2024-03-02T04:09:04;54.1;;;32.4;;
51515;SDS011;37603;55.614;37.326;2024-03-02T04:15:04;55.9;;;33.9;;
51515;SDS011;37603;55.614;37.326;2024-03-02T04:21:02;55.0;;;32.7;;
51515;SDS011;37603;55.614;37.326;2024-03-02T04:27:00;61.1;;;34.8;;
51515;SDS011;37603;55.614;37.326;2024-03-02T04:32:59;56.4;;;33.9;;
51515;SDS011;37603;55.614;37.326;2024-03-02T04:38:58;59.8;;;34.2;;
51515;SDS011;37603;55.614;37.326;2024-03-02T04:44:57;67.4;;;38.2;;
51515;SDS011;37603;55.614;37.326;2024-03-02T04:50:56;64.6;;;36.9;;
51515;SDS011;37603;55.614;37.326;2024-03-02T04:56:55;62.9;;;35.0;;
51515;SDS011;37603;55.614;37.326;2024-03-02T05:02:54;63.4;;;36.2;;
51515;SDS011;37603;55.614;37.326;2024-03-02T05:08:53;67.8;;;37.4;;
51515;SDS011;37603;55.614;37.326;2024-03-02T05:14:51;68.1;;;38.3;;
51515;SDS011;37603;55.614;37.326;2024-03-02T05:26:49;69.5;;;39.6;;
51515;SDS011;37603;55.614;37.326;2024-03-02T05:32:48;64.6;;;38.0;;
51515;SDS011;37603;55.614;37.326;2024-03-02T05:38:47;64.2;;;37.9;;
51515;SDS011;37603;55.614;37.326;2024-03-02T05:44:46;60.0;;;36.6;;
51515;SDS011;37603;55.614;37.326;2024-03-02T05:50:45;60.7;;;36.8;;
51515;SDS011;37603;55.614;37.326;2024-03-02T05:56:43;59.4;;;36.9;;
51515;SDS011;37603;55.614;37.326;2024-03-02T06:02:42;63.9;;;39.1;;
51515;SDS011;37603;55.614;37.326;2024-03-02T06:08:41;62.4;;;38.0;;
51515;SDS011;37603;55.614;37.326;2024-03-02T06:14:40;63.3;;;40.7;;
51515;SDS011;37603;55.614;37.326;2024-03-02T06:20:39;60.3;;;38.5;;
51515;SDS011;37603;55.614;37.326;2024-03-02T06:26:38;65.7;;;41.0;;
51515;SDS011;37603;55.614;37.326;2024-03-02T06:32:37;67.1;;;43.1;;
51515;SDS011;37603;55.614;37.326;2024-03-02T06:38:36;71.2;;;46.5;;
51515;SDS011;37603;55.614;37.326;2024-03-02T06:44:35;76.7;;;47.3;;
51515;SDS011;37603;55.614;37.326;2024-03-02T06:50:34;71.3;;;46.2;;
51515;SDS011;37603;55.614;37.326;2024-03-02T06:56:32;67.6;;;45.5;;
51515;SDS011;37603;55.614;37.326;2024-03-02T07:02:31;62.8;;;42.4;;
51515;SDS011;37603;55.614;37.326;2024-03-02T07:08:30;61.4;;;41.5;;
51515;SDS011;37603;55.614;37.326;2024-03-02T07:14:30;60.9;;;40.3;;
51515;SDS011;37603;55.614;37.326;2024-03-02T07:20:29;57.4;;;40.2;;
51515;SDS011;37603;55.614;37.326;2024-03-02T07:26:28;56.1;;;40.5;;
51515;SDS011;37603;55.614;37.326;2024-03-02T07:38:26;61.5;;;41.4;;
51515;SDS011;37603;55.614;37.326;2024-03-02T07:44:25;59.5;;;41.3;;
51515;SDS011;37603;55.614;37.326;2024-03-02T07:50:24;56.4;;;40.9;;
51515;SDS011;37603;55.614;37.326;2024-03-02T07:56:23;59.4;;;40.8;;
51515;SDS011;37603;55.614;37.326;2024-03-02T08:02:23;55.5;;;40.5;;
51515;SDS011;37603;55.614;37.326;2024-03-02T08:08:22;56.6;;;38.6;;
51515;SDS011;37603;55.614;37.326;2024-03-02T08:14:21;53.3;;;38.6;;
51515;SDS011;37603;55.614;37.326;2024-03-02T08:20:20;50.1;;;37.4;;
51515;SDS011;37603;55.614;37.326;2024-03-02T08:26:20;45.6;;;33.9;;
51515;SDS011;37603;55.614;37.326;2024-03-02T08:32:19;49.0;;;32.6;;
51515;SDS011;37603;55.614;37.326;2024-03-02T08:38:18;47.2;;;33.9;;
51515;SDS011;37603;55.614;37.326;2024-03-02T08:44:17;45.6;;;34.4;;
51515;SDS011;37603;55.614;37.326;2024-03-02T08:50:17;51.0;;;36.6;;
51515;SDS011;37603;55.614;37.326;2024-03-02T08:56:16;52.3;;;36.5;;
51515;SDS011;37603;55.614;37.326;2024-03-02T09:02:15;47.5;;;35.8;;
51515;SDS011;37603;55.614;37.326;2024-03-02T09:08:14;46.1;;;33.5;;
51515;SDS011;37603;55.614;37.326;2024-03-02T09:14:13;46.3;;;32.8;;
51515;SDS011;37603;55.614;37.326;2024-03-02T09:20:12;43.7;;;32.8;;
51515;SDS011;37603;55.614;37.326;2024-03-02T09:26:11;45.5;;;31.9;;
51515;SDS011;37603;55.614;37.326;2024-03-02T09:32:12;46.0;;;32.8;;
51515;SDS011;37603;55.614;37.326;2024-03-02T09:38:09;47.1;;;32.9;;
51515;SDS011;37603;55.614;37.326;2024-03-02T09:44:08;46.6;;;33.8;;
51515;SDS011;37603;55.614;37.326;2024-03-02T09:50:08;49.0;;;35.7;;
51515;SDS011;37603;55.614;37.326;2024-03-02T09:56:06;48.2;;;34.9;;
51515;SDS011;37603;55.614;37.326;2024-03-02T10:02:06;48.9;;;35.6;;
51515;SDS011;37603;55.614;37.326;2024-03-02T10:08:05;51.8;;;36.9;;
51515;SDS011;37603;55.614;37.326;2024-03-02T10:14:04;52.6;;;38.0;;
51515;SDS011;37603;55.614;37.326;2024-03-02T10:26:02;54.3;;;39.5;;
51515;SDS011;37603;55.614;37.326;2024-03-02T10:32:01;53.8;;;40.4;;
51515;SDS011;37603;55.614;37.326;2024-03-02T10:38:00;58.1;;;42.1;;
51515;SDS011;37603;55.614;37.326;2024-03-02T10:43:59;65.5;;;43.4;;
51515;SDS011;37603;55.614;37.326;2024-03-02T10:49:58;63.0;;;44.0;;
51515;SDS011;37603;55.614;37.326;2024-03-02T10:55:58;53.8;;;40.2;;
51515;SDS011;37603;55.614;37.326;2024-03-02T11:01:57;57.1;;;39.6;;
51515;SDS011;37603;55.614;37.326;2024-03-02T11:07:57;59.1;;;41.0;;
51515;SDS011;37603;55.614;37.326;2024-03-02T11:13:55;54.1;;;41.2;;
51515;SDS011;37603;55.614;37.326;2024-03-02T11:19:54;58.6;;;40.7;;
51515;SDS011;37603;55.614;37.326;2024-03-02T11:25:53;59.1;;;39.9;;
51515;SDS011;37603;55.614;37.326;2024-03-02T11:31:59;59.0;;;41.8;;
51515;SDS011;37603;55.614;37.326;2024-03-02T11:37:51;62.4;;;43.2;;
51515;SDS011;37603;55.614;37.326;2024-03-02T11:43:50;61.1;;;42.7;;
51515;SDS011;37603;55.614;37.326;2024-03-02T11:49:50;60.9;;;43.5;;
51515;SDS011;37603;55.614;37.326;2024-03-02T11:55:48;54.8;;;40.2;;
51515;SDS011;37603;55.614;37.326;2024-03-02T12:01:47;56.4;;;41.0;;
51515;SDS011;37603;55.614;37.326;2024-03-02T12:07:46;59.3;;;42.0;;
51515;SDS011;37603;55.614;37.326;2024-03-02T12:13:52;64.9;;;41.9;;
51515;SDS011;37603;55.614;37.326;2024-03-02T12:19:44;52.8;;;38.7;;
51515;SDS011;37603;55.614;37.326;2024-03-02T12:25:44;53.2;;;37.9;;
51515;SDS011;37603;55.614;37.326;2024-03-02T12:31:43;54.7;;;39.7;;
51515;SDS011;37603;55.614;37.326;2024-03-02T12:37:42;57.1;;;38.8;;
51515;SDS011;37603;55.614;37.326;2024-03-02T12:43:41;50.1;;;34.0;;
51515;SDS011;37603;55.614;37.326;2024-03-02T12:49:40;41.8;;;29.8;;
51515;SDS011;37603;55.614;37.326;2024-03-02T12:55:39;38.2;;;27.7;;
51515;SDS011;37603;55.614;37.326;2024-03-02T13:01:38;47.1;;;33.3;;
51515;SDS011;37603;55.614;37.326;2024-03-02T13:07:37;52.5;;;37.9;;
51515;SDS011;37603;55.614;37.326;2024-03-02T13:13:36;54.0;;;37.3;;
51515;SDS011;37603;55.614;37.326;2024-03-02T13:19:35;46.4;;;33.3;;
51515;SDS011;37603;55.614;37.326;2024-03-02T13:25:34;46.0;;;32.9;;
51515;SDS011;37603;55.614;37.326;2024-03-02T13:31:33;48.8;;;31.8;;
51515;SDS011;37603;55.614;37.326;2024-03-02T13:37:32;46.8;;;31.1;;
51515;SDS011;37603;55.614;37.326;2024-03-02T13:43:31;45.5;;;31.9;;
51515;SDS011;37603;55.614;37.326;2024-03-02T13:49:30;43.1;;;29.6;;
51515;SDS011;37603;55.614;37.326;2024-03-02T13:55:29;41.5;;;27.8;;
51515;SDS011;37603;55.614;37.326;2024-03-02T14:01:28;38.2;;;27.2;;
51515;SDS011;37603;55.614;37.326;2024-03-02T14:07:27;40.6;;;26.9;;
51515;SDS011;37603;55.614;37.326;2024-03-02T14:13:26;36.3;;;26.4;;
51515;SDS011;37603;55.614;37.326;2024-03-02T14:19:25;38.3;;;26.0;;
51515;SDS011;37603;55.614;37.326;2024-03-02T14:25:24;38.8;;;25.9;;
51515;SDS011;37603;55.614;37.326;2024-03-02T14:31:23;39.2;;;25.9;;
51515;SDS011;37603;55.614;37.326;2024-03-02T14:37:22;33.0;;;25.1;;
51515;SDS011;37603;55.614;37.326;2024-03-02T14:43:21;38.6;;;25.7;;
51515;SDS011;37603;55.614;37.326;2024-03-02T14:49:20;37.0;;;26.0;;
51515;SDS011;37603;55.614;37.326;2024-03-02T14:55:19;38.2;;;25.3;;
51515;SDS011;37603;55.614;37.326;2024-03-02T15:01:18;34.0;;;25.0;;
51515;SDS011;37603;55.614;37.326;2024-03-02T15:07:17;36.4;;;25.3;;
51515;SDS011;37603;55.614;37.326;2024-03-02T15:13:16;34.9;;;24.5;;
51515;SDS011;37603;55.614;37.326;2024-03-02T15:19:15;35.0;;;25.1;;
51515;SDS011;37603;55.614;37.326;2024-03-02T15:25:14;35.2;;;25.1;;
51515;SDS011;37603;55.614;37.326;2024-03-02T15:31:12;37.1;;;25.5;;
51515;SDS011;37603;55.614;37.326;2024-03-02T15:37:11;36.7;;;25.4;;
51515;SDS011;37603;55.614;37.326;2024-03-02T15:43:10;39.6;;;26.1;;
51515;SDS011;37603;55.614;37.326;2024-03-02T15:49:09;38.8;;;26.0;;
51515;SDS011;37603;55.614;37.326;2024-03-02T15:55:08;39.7;;;25.4;;
51515;SDS011;37603;55.614;37.326;2024-03-02T16:01:07;34.2;;;24.7;;
51515;SDS011;37603;55.614;37.326;2024-03-02T16:07:06;34.6;;;25.3;;
51515;SDS011;37603;55.614;37.326;2024-03-02T16:13:05;34.1;;;22.0;;
51515;SDS011;37603;55.614;37.326;2024-03-02T16:19:03;36.2;;;23.3;;
51515;SDS011;37603;55.614;37.326;2024-03-02T16:25:03;34.1;;;22.6;;
51515;SDS011;37603;55.614;37.326;2024-03-02T16:31:01;31.3;;;22.8;;
51515;SDS011;37603;55.614;37.326;2024-03-02T16:37:00;34.2;;;22.8;;
51515;SDS011;37603;55.614;37.326;2024-03-02T16:42:59;34.7;;;23.2;;
51515;SDS011;37603;55.614;37.326;2024-03-02T16:48:58;34.6;;;23.3;;
51515;SDS011;37603;55.614;37.326;2024-03-02T16:54:57;38.3;;;24.6;;
51515;SDS011;37603;55.614;37.326;2024-03-02T17:00:55;39.2;;;25.3;;
51515;SDS011;37603;55.614;37.326;2024-03-02T17:06:54;38.3;;;25.3;;
51515;SDS011;37603;55.614;37.326;2024-03-02T17:12:53;35.7;;;26.3;;
51515;SDS011;37603;55.614;37.326;2024-03-02T17:18:52;39.0;;;27.2;;
51515;SDS011;37603;55.614;37.326;2024-03-02T17:24:51;41.7;;;28.7;;
51515;SDS011;37603;55.614;37.326;2024-03-02T17:30:49;42.9;;;29.2;;
51515;SDS011;37603;55.614;37.326;2024-03-02T17:36:48;42.5;;;29.8;;
51515;SDS011;37603;55.614;37.326;2024-03-02T17:48:46;45.1;;;31.4;;
51515;SDS011;37603;55.614;37.326;2024-03-02T17:54:45;45.5;;;31.9;;
51515;SDS011;37603;55.614;37.326;2024-03-02T18:00:44;47.1;;;32.2;;
51515;SDS011;37603;55.614;37.326;2024-03-02T18:06:42;44.6;;;31.8;;
51515;SDS011;37603;55.614;37.326;2024-03-02T18:12:45;45.8;;;31.7;;
51515;SDS011;37603;55.614;37.326;2024-03-02T18:18:40;44.8;;;30.6;;
51515;SDS011;37603;55.614;37.326;2024-03-02T18:24:39;40.6;;;29.1;;
51515;SDS011;37603;55.614;37.326;2024-03-02T18:36:36;41.6;;;27.8;;
51515;SDS011;37603;55.614;37.326;2024-03-02T18:42:35;36.0;;;25.9;;
51515;SDS011;37603;55.614;37.326;2024-03-02T18:48:34;38.4;;;26.6;;
51515;SDS011;37603;55.614;37.326;2024-03-02T18:54:33;36.5;;;25.3;;
51515;SDS011;37603;55.614;37.326;2024-03-02T19:00:32;31.6;;;23.5;;
51515;SDS011;37603;55.614;37.326;2024-03-02T19:06:30;29.7;;;20.8;;
51515;SDS011;37603;55.614;37.326;2024-03-02T19:12:29;33.0;;;22.2;;
51515;SDS011;37603;55.614;37.326;2024-03-02T19:18:28;33.9;;;22.1;;
51515;SDS011;37603;55.614;37.326;2024-03-02T19:24:27;31.0;;;19.8;;
51515;SDS011;37603;55.614;37.326;2024-03-02T19:30:25;29.1;;;20.4;;
51515;SDS011;37603;55.614;37.326;2024-03-02T19:36:24;33.9;;;22.6;;
51515;SDS011;37603;55.614;37.326;2024-03-02T19:42:23;35.5;;;22.4;;
51515;SDS011;37603;55.614;37.326;2024-03-02T19:48:22;32.4;;;22.6;;
51515;SDS011;37603;55.614;37.326;2024-03-02T19:54:20;31.6;;;21.7;;
51515;SDS011;37603;55.614;37.326;2024-03-02T20:00:19;30.8;;;20.9;;
51515;SDS011;37603;55.614;37.326;2024-03-02T20:06:18;30.4;;;20.8;;
51515;SDS011;37603;55.614;37.326;2024-03-02T20:12:17;31.6;;;21.7;;
51515;SDS011;37603;55.614;37.326;2024-03-02T20:18:15;34.4;;;22.1;;
51515;SDS011;37603;55.614;37.326;2024-03-02T20:24:14;32.0;;;22.1;;
51515;SDS011;37603;55.614;37.326;2024-03-02T20:30:13;34.3;;;21.4;;
51515;SDS011;37603;55.614;37.326;2024-03-02T20:36:12;30.2;;;22.3;;
51515;SDS011;37603;55.614;37.326;2024-03-02T20:42:10;33.9;;;21.8;;
51515;SDS011;37603;55.614;37.326;2024-03-02T20:48:09;28.1;;;20.6;;
51515;SDS011;37603;55.614;37.326;2024-03-02T20:54:08;30.3;;;20.9;;
51515;SDS011;37603;55.614;37.326;2024-03-02T21:00:07;26.9;;;20.2;;
51515;SDS011;37603;55.614;37.326;2024-03-02T21:06:05;31.1;;;21.3;;
51515;SDS011;37603;55.614;37.326;2024-03-02T21:12:04;30.5;;;20.7;;
51515;SDS011;37603;55.614;37.326;2024-03-02T21:18:03;31.4;;;21.2;;
51515;SDS011;37603;55.614;37.326;2024-03-02T21:30:00;31.5;;;21.4;;
51515;SDS011;37603;55.614;37.326;2024-03-02T21:35:59;30.2;;;21.7;;
51515;SDS011;37603;55.614;37.326;2024-03-02T21:41:57;32.7;;;22.2;;
51515;SDS011;37603;55.614;37.326;2024-03-02T21:47:56;30.2;;;21.7;;
51515;SDS011;37603;55.614;37.326;2024-03-02T21:53:55;31.3;;;21.8;;
51515;SDS011;37603;55.614;37.326;2024-03-02T21:59:53;30.7;;;21.2;;
51515;SDS011;37603;55.614;37.326;2024-03-02T22:05:52;30.4;;;20.5;;
51515;SDS011;37603;55.614;37.326;2024-03-02T22:11:51;27.7;;;20.2;;
51515;SDS011;37603;55.614;37.326;2024-03-02T22:17:50;30.8;;;19.8;;
51515;SDS011;37603;55.614;37.326;2024-03-02T22:23:48;30.4;;;20.3;;
51515;SDS011;37603;55.614;37.326;2024-03-02T22:29:47;30.7;;;20.3;;
51515;SDS011;37603;55.614;37.326;2024-03-02T22:35:46;32.6;;;20.1;;
51515;SDS011;37603;55.614;37.326;2024-03-02T22:41:45;30.7;;;21.1;;
51515;SDS011;37603;55.614;37.326;2024-03-02T22:47:43;31.6;;;19.8;;
51515;SDS011;37603;55.614;37.326;2024-03-02T22:53:42;31.5;;;20.0;;
51515;SDS011;37603;55.614;37.326;2024-03-02T22:59:41;30.1;;;19.9;;
51515;SDS011;37603;55.614;37.326;2024-03-02T23:05:39;25.4;;;10.5;;
51515;SDS011;37603;55.614;37.326;2024-03-02T23:11:38;33.0;;;20.1;;
51515;SDS011;37603;55.614;37.326;2024-03-02T23:17:37;25.5;;;10.1;;
51515;SDS011;37603;55.614;37.326;2024-03-02T23:23:36;34.1;;;20.3;;
51515;SDS011;37603;55.614;37.326;2024-03-02T23:29:34;30.0;;;20.3;;
51515;SDS011;37603;55.614;37.326;2024-03-02T23:35:33;33.3;;;20.3;;
51515;SDS011;37603;55.614;37.326;2024-03-02T23:41:31;31.3;;;20.0;;
51515;SDS011;37603;55.614;37.326;2024-03-02T23:47:30;33.0;;;20.6;;
51515;SDS011;37603;55.614;37.326;2024-03-02T23:53:29;35.5;;;21.2;;
51515;SDS011;37603;55.614;37.326;2024-03-02T23:59:27;33.8;;;20.7;;
